createdAt,value
2023-04-24T00:03:40.387Z,3.30
2023-04-24T00:08:32.561Z,3.37
2023-04-24T00:13:24.598Z,3.60
2023-04-24T00:18:16.715Z,3.60
2023-04-24T00:23:09.040Z,3.77
2023-04-24T00:28:01.302Z,4.03
2023-04-24T00:32:53.427Z,4.20
2023-04-24T00:37:45.529Z,3.83
2023-04-24T00:42:37.880Z,4.17
2023-04-24T00:47:31.160Z,4.63
2023-04-24T00:52:25.399Z,3.67
2023-04-24T00:57:18.620Z,3.90
2023-04-24T01:02:12.383Z,4.73
2023-04-24T01:12:50.681Z,3.73
2023-04-24T01:17:42.779Z,3.60
2023-04-24T01:22:35.778Z,3.77
2023-04-24T01:27:28.166Z,3.47
2023-04-24T01:32:20.980Z,3.93
2023-04-24T01:37:20.660Z,4.07
2023-04-24T01:42:13.907Z,3.90
2023-04-24T01:47:07.077Z,4.40
2023-04-24T01:51:59.150Z,3.60
2023-04-24T01:56:51.258Z,4.07
2023-04-24T02:01:43.335Z,3.97
2023-04-24T02:06:35.804Z,4.20
2023-04-24T02:11:27.896Z,3.73
2023-04-24T02:16:20.182Z,3.87
2023-04-24T02:21:12.287Z,4.07
2023-04-24T02:26:04.415Z,4.03
2023-04-24T02:30:56.490Z,4.20
2023-04-24T02:35:48.566Z,3.63
2023-04-24T02:40:40.512Z,3.43
2023-04-24T02:45:32.634Z,3.40
2023-04-24T02:50:24.681Z,3.63
2023-04-24T02:55:16.785Z,3.73
2023-04-24T03:00:10.216Z,4.13
2023-04-24T03:05:03.417Z,4.13
2023-04-24T03:09:55.481Z,4.40
2023-04-24T03:14:47.517Z,4.37
2023-04-24T03:19:39.981Z,4.03
2023-04-24T03:24:36.531Z,4.20
2023-04-24T03:29:30.352Z,3.60
2023-04-24T03:34:23.879Z,3.77
2023-04-24T03:39:16.797Z,3.67
2023-04-24T03:44:16.488Z,4.30
2023-04-24T03:49:10.692Z,3.63
2023-04-24T03:54:07.080Z,3.83
2023-04-24T03:59:04.057Z,2.40
2023-04-24T04:03:56.761Z,1.83
2023-04-24T04:08:51.022Z,1.50
2023-04-24T04:13:43.783Z,1.00
2023-04-24T04:18:35.900Z,0.90
2023-04-24T04:23:29.553Z,5.23
2023-04-24T04:28:33.461Z,1.20
2023-04-24T04:33:26.918Z,0.67
2023-04-24T04:38:20.492Z,0.93
2023-04-24T04:43:19.139Z,0.63
2023-04-24T04:48:18.906Z,0.70
2023-04-24T04:53:11.677Z,0.80
2023-04-24T04:58:04.920Z,0.90
2023-04-24T05:03:05.888Z,3.30
2023-04-24T05:08:08.901Z,1.00
2023-04-24T05:13:03.808Z,0.90
2023-04-24T05:17:58.005Z,1.13
2023-04-24T05:22:52.569Z,1.23
2023-04-24T05:27:47.494Z,1.10
2023-04-24T05:32:41.659Z,1.60
2023-04-24T05:37:33.870Z,0.80
2023-04-24T05:42:26.331Z,1.33
2023-04-24T05:47:18.464Z,0.67
2023-04-24T05:52:10.826Z,0.80
2023-04-24T05:57:08.525Z,0.50
2023-04-24T06:02:14.513Z,0.80
2023-04-24T06:07:07.723Z,0.87
2023-04-24T06:12:01.130Z,0.50
2023-04-24T06:17:02.754Z,0.70
2023-04-24T06:22:01.218Z,1.43
2023-04-24T06:26:53.358Z,1.03
2023-04-24T06:31:45.668Z,0.67
2023-04-24T06:36:38.365Z,1.00
2023-04-24T06:41:30.872Z,0.57
2023-04-24T06:46:24.915Z,0.60
2023-04-24T06:51:18.723Z,0.57
2023-04-24T06:56:10.902Z,0.47
2023-04-24T07:01:03.015Z,0.70
2023-04-24T07:05:56.199Z,0.60
2023-04-24T07:10:48.289Z,0.60
2023-04-24T07:15:42.059Z,0.55
2023-04-24T07:20:34.536Z,1.10
2023-04-24T07:25:26.707Z,1.00
2023-04-24T07:30:18.928Z,0.70
2023-04-24T07:35:11.180Z,0.50
2023-04-24T07:40:04.480Z,0.40
2023-04-24T07:44:57.942Z,0.50
2023-04-24T07:49:49.955Z,0.50
2023-04-24T07:54:42.437Z,0.70
2023-04-24T07:59:35.003Z,0.50
2023-04-24T08:04:27.319Z,0.53
2023-04-24T08:09:19.478Z,0.40
2023-04-24T08:14:13.588Z,0.50
2023-04-24T08:19:05.782Z,0.30
2023-04-24T08:23:57.816Z,0.43
2023-04-24T08:28:49.916Z,1.57
2023-04-24T08:33:42.246Z,0.40
2023-04-24T08:38:35.124Z,0.60
2023-04-24T08:43:28.344Z,0.37
2023-04-24T08:48:30.373Z,0.43
2023-04-24T08:53:25.774Z,0.60
2023-04-24T08:58:19.031Z,0.87
2023-04-24T09:03:11.838Z,0.80
2023-04-24T09:08:05.975Z,0.30
2023-04-24T09:12:59.911Z,0.50
2023-04-24T09:17:52.080Z,0.40
2023-04-24T09:22:46.055Z,0.57
2023-04-24T09:27:42.456Z,0.63
2023-04-24T09:32:35.204Z,0.73
2023-04-24T09:37:30.766Z,1.13
2023-04-24T09:42:26.815Z,1.07
2023-04-24T09:47:18.994Z,0.40
2023-04-24T09:52:12.561Z,1.10
2023-04-24T09:57:05.134Z,0.90
2023-04-24T10:01:58.854Z,0.90
2023-04-24T10:06:52.733Z,0.53
2023-04-24T10:11:46.556Z,1.07
2023-04-24T10:16:40.411Z,0.67
2023-04-24T10:21:33.711Z,0.40
2023-04-24T10:26:25.939Z,0.40
2023-04-24T10:31:19.529Z,0.47
2023-04-24T10:36:13.235Z,0.87
2023-04-24T10:41:17.499Z,0.50
2023-04-24T10:46:11.704Z,0.70
2023-04-24T10:51:04.226Z,0.43
2023-04-24T10:56:04.608Z,0.40
2023-04-24T11:01:01.418Z,0.30
2023-04-24T11:06:06.720Z,0.40
2023-04-24T11:11:09.369Z,0.70
2023-04-24T11:16:36.544Z,0.43
2023-04-24T11:21:33.936Z,0.40
2023-04-24T11:26:31.543Z,0.30
2023-04-24T11:31:40.134Z,0.60
2023-04-24T11:36:33.475Z,0.40
2023-04-24T11:41:26.867Z,0.40
2023-04-24T11:46:18.970Z,0.47
2023-04-24T11:51:12.904Z,0.40
2023-04-24T11:56:05.542Z,0.40
2023-04-24T12:01:02.359Z,0.90
2023-04-24T12:06:05.565Z,0.50
2023-04-24T12:10:57.743Z,0.60
2023-04-24T12:15:51.834Z,0.50
2023-04-24T12:20:44.126Z,0.50
2023-04-24T12:25:36.351Z,0.80
2023-04-24T12:30:31.843Z,0.50
2023-04-24T12:35:25.634Z,0.53
2023-04-24T12:40:19.181Z,0.80
2023-04-24T12:45:13.200Z,1.00
2023-04-24T12:50:06.863Z,0.60
2023-04-24T12:55:01.090Z,0.63
2023-04-24T12:59:56.520Z,0.60
2023-04-24T13:04:48.637Z,0.40
2023-04-24T13:09:41.129Z,0.60
2023-04-24T13:14:33.643Z,0.60
2023-04-24T13:19:27.993Z,2.40
2023-04-24T13:24:20.061Z,0.57
2023-04-24T13:29:12.153Z,1.07
2023-04-24T13:34:04.701Z,3.77
2023-04-24T13:38:56.718Z,1.13
2023-04-24T13:43:48.739Z,0.50
2023-04-24T13:48:41.476Z,0.80
2023-04-24T13:53:37.010Z,0.93
2023-04-24T13:58:29.136Z,0.60
2023-04-24T14:03:21.314Z,0.80
2023-04-24T14:08:13.416Z,0.70
2023-04-24T14:13:05.505Z,0.90
2023-04-24T14:17:57.591Z,0.90
2023-04-24T14:22:49.583Z,0.70
2023-04-24T14:27:41.693Z,0.50
2023-04-24T14:32:33.786Z,0.53
2023-04-24T14:37:28.326Z,0.40
2023-04-24T14:42:20.410Z,0.60
2023-04-24T14:47:12.638Z,1.10
2023-04-24T14:52:04.695Z,0.73
2023-04-24T14:56:58.313Z,0.80
2023-04-24T15:01:56.735Z,0.77
2023-04-24T15:06:56.868Z,0.50
2023-04-24T15:11:49.638Z,0.70
2023-04-24T15:16:41.863Z,0.50
2023-04-24T15:21:34.152Z,0.93
2023-04-24T15:26:26.553Z,0.53
2023-04-24T15:31:19.552Z,0.50
2023-04-24T15:36:15.758Z,0.60
2023-04-24T15:41:07.825Z,0.70
2023-04-24T15:45:59.827Z,0.50
2023-04-24T15:50:51.959Z,0.40
2023-04-24T15:55:43.975Z,0.70
2023-04-24T16:00:37.162Z,0.60
2023-04-24T16:05:29.483Z,0.50
2023-04-24T16:10:21.497Z,0.50
2023-04-24T16:15:13.586Z,0.70
2023-04-24T16:20:06.192Z,0.50
2023-04-24T16:24:58.694Z,0.70
2023-04-24T16:29:50.836Z,0.70
2023-04-24T16:34:43.052Z,0.80
2023-04-24T16:39:35.782Z,0.87
2023-04-24T16:44:28.285Z,0.87
2023-04-24T16:49:21.560Z,0.70
2023-04-24T16:54:13.559Z,3.37
2023-04-24T16:59:07.046Z,0.80
2023-04-24T17:04:00.713Z,0.50
2023-04-24T17:08:52.867Z,0.60
2023-04-24T17:13:44.934Z,0.60
2023-04-24T17:18:37.056Z,0.50
2023-04-24T17:23:29.153Z,0.50
2023-04-24T17:28:32.453Z,0.60
2023-04-24T17:33:25.885Z,0.60
2023-04-24T17:38:19.045Z,0.50
2023-04-24T17:43:11.191Z,0.50
2023-04-24T17:48:03.744Z,0.63
2023-04-24T17:52:55.753Z,0.37
2023-04-24T17:57:48.070Z,3.13
2023-04-24T18:02:40.276Z,0.37
2023-04-24T18:07:34.125Z,0.30
2023-04-24T18:12:26.245Z,0.30
2023-04-24T18:17:18.307Z,0.70
2023-04-24T18:22:10.344Z,0.40
2023-04-24T18:27:02.809Z,0.40
2023-04-24T18:31:54.946Z,0.73
2023-04-24T18:36:46.996Z,0.50
2023-04-24T18:41:39.142Z,1.20
2023-04-24T18:46:35.015Z,0.40
2023-04-24T18:51:27.004Z,0.30
2023-04-24T18:56:19.447Z,1.03
2023-04-24T19:01:11.871Z,0.60
2023-04-24T19:06:04.124Z,0.40
2023-04-24T19:10:56.163Z,0.53
2023-04-24T19:15:48.235Z,0.40
2023-04-24T19:20:40.368Z,0.37
2023-04-24T19:25:32.325Z,0.50
2023-04-24T19:30:25.637Z,1.67
2023-04-24T19:35:17.900Z,2.63
2023-04-24T19:40:10.900Z,0.83
2023-04-24T19:45:02.903Z,0.47
2023-04-24T19:49:56.285Z,0.40
2023-04-24T19:54:48.413Z,0.60
2023-04-24T19:59:40.392Z,0.70
2023-04-24T20:04:32.569Z,0.73
2023-04-24T20:09:25.180Z,1.00
2023-04-24T20:14:17.268Z,0.70
2023-04-24T20:19:09.358Z,0.50
2023-04-24T20:24:01.547Z,0.70
2023-04-24T20:28:53.625Z,0.50
2023-04-24T20:33:46.124Z,0.60
2023-04-24T20:38:38.377Z,0.63
2023-04-24T20:43:31.549Z,0.90
2023-04-24T20:48:23.599Z,1.10
2023-04-24T20:53:17.934Z,0.90
2023-04-24T20:58:10.269Z,0.80
2023-04-24T21:03:02.555Z,1.17
2023-04-24T21:07:56.211Z,1.30
2023-04-24T21:12:48.276Z,1.20
2023-04-24T21:17:40.410Z,0.80
2023-04-24T21:22:32.473Z,1.10
2023-04-24T21:27:24.518Z,1.23
2023-04-24T21:32:16.764Z,1.03
2023-04-24T21:37:08.861Z,1.10
2023-04-24T21:42:00.912Z,1.40
2023-04-24T21:46:53.094Z,1.40
2023-04-24T21:51:45.131Z,1.70
2023-04-24T21:56:37.327Z,1.40
2023-04-24T22:01:29.473Z,1.27
2023-04-24T22:06:21.546Z,1.50
2023-04-24T22:11:25.892Z,1.57
2023-04-24T22:16:19.213Z,1.80
2023-04-24T22:21:11.310Z,1.53
2023-04-24T22:26:03.400Z,1.80
2023-04-24T22:30:55.565Z,2.00
2023-04-24T22:35:47.532Z,2.20
2023-04-24T22:40:40.573Z,1.50
2023-04-24T22:45:32.577Z,2.00
2023-04-24T22:50:25.519Z,1.87
2023-04-24T22:55:17.525Z,2.10
2023-04-24T23:00:12.581Z,2.00
2023-04-24T23:05:06.056Z,2.20
2023-04-24T23:09:58.709Z,2.90
2023-04-24T23:14:50.796Z,2.77
2023-04-24T23:19:42.875Z,1.80
2023-04-24T23:24:34.957Z,2.60
2023-04-24T23:29:27.202Z,2.33
2023-04-24T23:34:20.262Z,3.10
2023-04-24T23:39:12.897Z,2.40
2023-04-24T23:44:05.740Z,2.30
2023-04-24T23:48:57.753Z,2.23
2023-04-24T23:53:50.147Z,2.40
2023-04-24T23:58:42.939Z,2.10
